US-0145 weather

Viejo Ranch Ultralightport
Helotes, Texas, United States

Public forecast

Using degrees Fahrenheit for public forecast. Weather courtesy of forecast.io.

Closest aviation weather report (METAR) to Viejo Ranch Ultralightport

Closest report is Boerne Stage Field, 7.2 nm (13.4 km) NNE. Retrieved 2020/08/08 23:35 UTC (3 minutes ago):

K5C1 082335Z AUTO 14009G16KT 10SM CLR 33/15 A3006 RMK AO1

Closest aviation forecast (TAF) to Viejo Ranch Ultralightport

Closest forecast is San Antonio International Airport, 13.8 nm (25.6 km) ESE. Retrieved 2020/08/08 18:33 UTC (5 hours ago):

TAF KSAT 081730Z 0818/0924 15010G18KT P6SM SCT040 BKN100 FM090600 16010KT P6SM FEW008 SCT015 FM090900 17007KT P6SM BKN015 FM091600 17012G22KT P6SM SCT050